Latest Coastal Weather Observations for Adelaide Airport

IDS60701

Issued at 2:51 am CST Saturday 24 June 2017 (issued every 10 minutes, with the page automatically refreshed every 10 minutes)

About coastal observations | Map of coastal stations | Coastal observations for SA | Marine services | Other Formats
Station Details ID: 023034 Name: ADELAIDE AIRPORT Lat: -34.95 Lon: 138.52 Height: 2.0 m
Data from the previous 72 hours. | See also: Recent months at Adelaide Airport
Date/Time
CST
Temp
°C
Wind Pressure Rain since
9am
mm
Weather Cloud Vis
km
Sea
Height
m
Swell
Dir  Spd
kts
Gust
kts
hPa Trend Height
m
Period
s
Dir
24/02:30am 7.1 SE 4 4 1019.1 - 0.0 - Mostly cloudy 10 - - - -
24/02:00am 7.0 E 3 4 1019.0 - 0.0 - Mostly clear 10 - - - -
24/01:30am 7.5 NE 5 6 1019.0 - 0.0 - Mostly clear 10 - - - -
24/01:00am 6.7 E 4 5 1019.0 - 0.0 - Partly cloudy 10 - - - -
24/12:30am 5.9 ENE 5 5 1019.1 - 0.0 - - 10 - - - -
24/12:00am 7.1 NE 4 5 1019.2 R 0.0 Fine Clear 30 - - - -
 
Date/Time
CST
Temp
°C
Wind Pressure Rain since
9am
mm
Weather Cloud Vis
km
Sea
Height
m
Swell
Dir  Spd
kts
Gust
kts
hPa Trend Height
m
Period
s
Dir
23/11:30pm 6.5 NE 5 5 1019.0 - 0.0 - - 10 - - - -
23/11:00pm 7.2 NE 5 5 1019.1 - 0.0 - - 10 - - - -
23/10:30pm 6.9 ENE 4 5 1019.0 - 0.0 - - 10 - - - -
23/10:00pm 7.2 ESE 1 5 1019.0 - 0.0 - - 10 - - - -
23/09:30pm 6.7 E 5 6 1018.7 - 0.0 - - 10 - - - -
23/09:00pm 7.2 SE 3 6 1018.8 R 0.0 Fine Clear 35 - - - -
23/08:30pm 9.0 CALM 0 6 1018.4 - 0.0 - - 10 - - - -
23/08:00pm 9.4 E 4 5 1018.2 - 0.0 - - 10 - - - -
23/07:30pm 10.2 ENE 3 4 1018.2 - 0.0 - - 10 - - - -
23/07:00pm 10.9 ENE 3 4 1018.0 - 0.0 - - 10 - - - -
23/06:30pm 10.9 E 3 5 1017.6 - 0.0 - Mostly clear 10 - - - -
23/06:00pm 11.7 CALM 0 0 1017.4 R 0.0 Fine Mostly clear 30 - - - -
23/05:30pm 12.7 CALM 0 0 1017.2 - 0.0 - Mostly clear 10 - - - -
23/05:00pm 14.9 CALM 0 0 1017.0 - 0.0 - Mostly clear 10 - - - -
23/04:30pm 15.4 CALM 0 0 1017.2 - 0.0 - Mostly clear 10 - - - -
23/04:00pm 15.9 CALM 0 0 1016.9 - 0.0 - Mostly clear 10 - - - -
23/03:30pm 16.0 SW 4 4 1017.0 - 0.0 - Mostly clear 10 - - - -
23/03:00pm 16.4 NW 3 5 1017.0 S 0.0 Fine Mostly cloudy 30 - - - -
23/02:30pm 17.2 NNW 5 6 1017.0 - 0.0 - Mostly clear 10 - - - -
23/02:00pm 16.3 NW 4 5 1017.2 - 0.0 - Mostly clear 10 - - - -
23/01:30pm 16.3 NW 6 7 1017.3 - 0.0 - Mostly clear 10 - - - -
23/01:00pm 16.4 NW 8 10 1017.9 - 0.0 - Mostly clear 10 - - - -
23/12:30pm 17.7 NNW 7 9 1018.0 - 0.0 - Mostly clear 10 - - - -
23/12:00pm 16.7 N 8 10 1018.1 F 0.0 Fine Mostly cloudy 30 - - - -
23/11:30am 16.6 NNE 6 9 1018.3 - 0.0 - - 10 - - - -
23/11:00am 16.0 NE 7 8 1018.9 - 0.0 - - 10 - - - -
23/10:30am 15.2 ENE 7 10 1019.0 - 0.0 - - 10 - - - -
23/10:00am 14.0 NNE 7 9 1019.4 - 0.0 - Partly cloudy 10 - - - -
23/09:30am 13.5 NE 7 9 1019.3 - 0.0 - Partly cloudy 10 - - - -
23/09:00am 12.2 NE 7 9 1019.4 F 0.0 Fine Partly cloudy 30 - - - -
23/08:30am 10.8 NE 7 8 1019.3 - 0.0 - Partly cloudy 10 - - - -
23/08:00am 8.9 NE 6 8 1019.0 - 0.0 - Partly cloudy 10 - - - -
23/07:30am 8.2 NE 6 7 1019.0 - 0.0 - Partly cloudy 10 - - - -
23/07:00am 9.1 NE 7 8 1018.7 - 0.0 - Partly cloudy 10 - - - -
23/06:30am 9.0 NE 6 7 1018.6 - 0.0 - - 10 - - - -
23/06:00am 8.5 NNE 6 8 1018.7 F 0.0 Fine Mostly cloudy 35 - - - -
23/05:30am 7.5 NE 6 9 1018.1 - 0.0 - - 10 - - - -
23/05:00am 7.4 NE 7 8 1018.6 - 0.0 - Partly cloudy 10 - - - -
23/04:30am 7.3 NE 5 6 1018.8 - 0.0 - Partly cloudy 10 - - - -
23/04:00am 7.2 NE 7 8 1019.0 - 0.0 - - 10 - - - -
23/03:30am 7.6 NE 9 10 1018.8 - 0.0 - - 10 - - - -
23/03:00am 6.6 NE 7 8 1019.0 F 0.0 Fine Clear 35 - - - -
23/02:30am 6.3 ENE 7 8 1019.2 - 0.0 - - 10 - - - -
23/02:00am 7.5 NE 6 6 1019.7 - 0.0 - Partly cloudy 10 - - - -
23/01:30am 7.0 NE 6 7 1019.8 - 0.0 - - 10 - - - -
23/01:00am 7.3 NE 7 7 1019.9 - 0.0 - - 10 - - - -
23/12:30am 8.5 NE 6 8 1020.1 - 0.0 - - 10 - - - -
23/12:00am 7.3 NE 5 6 1020.2 F 0.0 Fine Clear 35 - - - -
 
Date/Time
CST
Temp
°C
Wind Pressure Rain since
9am
mm
Weather Cloud Vis
km
Sea
Height
m
Swell
Dir  Spd
kts
Gust
kts
hPa Trend Height
m
Period
s
Dir
22/11:30pm 7.3 NE 7 7 1020.5 - 0.0 - - 10 - - - -
22/11:00pm 7.4 NE 6 6 1020.9 - 0.0 - - 10 - - - -
22/10:30pm 8.6 NE 6 7 1021.2 - 0.0 - - 10 - - - -
22/10:00pm 9.4 NE 7 8 1021.3 - 0.0 - - 10 - - - -
22/09:30pm 10.3 NNE 6 7 1021.2 - 0.0 - - 10 - - - -
22/09:00pm 8.9 NE 4 5 1021.4 F 0.0 Fine Clear 35 - - - -
22/08:30pm 9.6 NE 7 8 1021.3 - 0.0 - - 10 - - - -
22/08:00pm 9.4 ENE 4 4 1021.2 - 0.0 - - 10 - - - -
22/07:30pm 10.1 E 1 4 1021.2 - 0.0 - - 10 - - - -
22/07:00pm 10.4 E 3 5 1021.0 - 0.0 - - 10 - - - -
22/06:30pm 11.4 E 6 7 1021.2 - 0.0 - - 10 - - - -
22/06:00pm 12.1 E 5 5 1021.2 F 0.0 Fine Mostly clear 40 - - - -
22/05:30pm 13.0 CALM 0 0 1021.4 - 0.0 - - 10 - - - -
22/05:00pm 16.4 WNW 2 3 1021.5 - 0.0 - - 10 - - - -
22/04:30pm 17.1 WNW 4 5 1021.6 - 0.0 - - 10 - - - -
22/04:00pm 17.4 WNW 5 7 1021.7 - 0.0 - - 10 - - - -
22/03:30pm 17.8 WNW 7 9 1021.8 - 0.0 - - 10 - - - -
22/03:00pm 17.8 WNW 8 10 1021.8 F 0.0 Fine Mostly clear 40 - - - -
22/02:30pm 17.9 NW 9 10 1021.9 - 0.0 - - 10 - - - -
22/02:00pm 18.2 N 6 9 1022.1 - 0.0 - - 10 - - - -
22/01:30pm 18.7 N 7 9 1022.5 - 0.0 - - 10 - - - -
22/01:00pm 18.4 NNE 7 10 1023.1 - 0.0 - - 10 - - - -
22/12:30pm 18.1 N 9 11 1023.8 - 0.0 - - 10 - - - -
22/12:00pm 17.4 N 11 15 1024.5 F 0.0 Fine Mostly clear 40 - - - -
22/11:30am 16.8 N 9 13 1025.3 - 0.0 - - 10 - - - -
22/11:00am 16.5 NNE 11 14 1025.7 - 0.0 - - 10 - - - -
22/10:30am 15.9 NNE 11 15 1026.2 - 0.0 - - 10 - - - -
22/10:00am 14.9 NNE 8 9 1026.5 - 0.0 - - 10 - - - -
22/09:30am 13.6 NE 9 13 1026.4 - 0.0 - - 10 - - - -
22/09:00am 12.1 NE 8 9 1026.3 F 0.0 Fine Mostly clear 35 - - - -
22/08:30am 9.9 NE 7 8 1026.3 - 0.0 - - 10 - - - -
22/08:00am 5.6 NE 6 7 1026.4 - 0.0 - - 10 - - - -
22/07:30am 5.4 NE 4 5 1026.4 - 0.0 - - 10 - - - -
22/07:00am 5.5 NE 6 7 1026.2 - 0.0 - - 10 - - - -
22/06:30am 6.2 E 4 5 1026.0 - 0.0 - - 10 - - - -
22/06:00am 5.3 NE 6 7 1025.6 F 0.0 Fine Mostly clear 30 - - - -
22/05:30am 5.5 NE 6 7 1025.4 - 0.0 - - 10 - - - -
22/05:00am 6.2 NE 5 6 1025.5 - 0.0 - - 10 - - - -
22/04:30am 6.7 ENE 7 8 1025.2 - 0.0 - - 10 - - - -
22/04:00am 7.0 NE 8 8 1025.6 - 0.0 - - 10 - - - -
22/03:30am 6.1 NE 7 8 1025.5 - 0.0 - - 10 - - - -
22/03:00am 5.4 NE 6 7 1025.9 S 0.0 Fine Mostly clear 30 - - - -
22/02:30am 7.1 NNE 8 9 1026.0 - 0.0 - - 10 - - - -
22/02:00am 5.6 NE 7 8 1025.8 - 0.0 - - 10 - - - -
22/01:30am 6.3 NE 5 5 1026.0 - 0.0 - - 10 - - - -
22/01:00am 6.0 NE 5 6 1025.9 - 0.0 - - 10 - - - -
22/12:30am 7.2 CALM 0 0 1026.2 - 0.0 - - 10 - - - -
22/12:00am 6.8 CALM 0 0 1026.3 F 0.0 Fine Clear 30 - - - -
 
Date/Time
CST
Temp
°C
Wind Pressure Rain since
9am
mm
Weather Cloud Vis
km
Sea
Height
m
Swell
Dir  Spd
kts
Gust
kts
hPa Trend Height
m
Period
s
Dir
21/11:30pm 8.4 CALM 0 3 1026.6 - 0.0 - - 10 - - - -
21/11:00pm 8.4 ENE 5 5 1026.8 - 0.0 - - 10 - - - -
21/10:30pm 9.5 ENE 5 5 1026.8 - 0.0 - - 10 - - - -
21/10:00pm 8.9 ENE 1 3 1027.0 - 0.0 - - 10 - - - -
21/09:30pm 9.9 NE 6 7 1027.2 - 0.0 - - 10 - - - -
21/09:00pm 10.1 ENE 4 5 1027.3 S 0.0 Fine Clear 30 - - - -
21/08:30pm 10.0 ESE 4 4 1027.2 - 0.0 - - 10 - - - -
21/08:00pm 10.2 SE 4 5 1027.1 - 0.0 - - 10 - - - -
21/07:30pm 11.7 SE 5 6 1026.9 - 0.0 - - 10 - - - -
21/07:00pm 11.3 SE 5 6 1026.9 - 0.0 - - 10 - - - -
21/06:30pm 11.4 SSE 5 6 1026.8 - 0.0 - - 10 - - - -
21/06:00pm 12.2 S 5 5 1026.6 F 0.0 Fine Mostly clear 30 - - - -
21/05:30pm 12.5 S 5 6 1026.5 - 0.0 - Mostly clear 10 - - - -
21/05:00pm 13.9 SSW 5 7 1026.6 - 0.0 - Mostly clear 10 - - - -
21/04:30pm 14.9 SSW 6 8 1026.6 - 0.0 - Mostly clear 10 - - - -
21/04:00pm 15.4 SW 7 8 1026.8 - 0.0 - Mostly clear 10 - - - -
21/03:30pm 15.6 WSW 8 9 1026.7 - 0.0 - Mostly clear 10 - - - -
21/03:00pm 15.6 SW 7 9 1026.6 F 0.0 Fine Mostly clear 35 - - - -
21/02:30pm 16.2 WSW 8 9 1026.5 - 0.0 - Mostly clear 10 - - - -
21/02:00pm 15.8 WSW 8 9 1026.6 - 0.0 - Mostly clear 10 - - - -
21/01:30pm 15.9 WSW 6 8 1027.0 - 0.0 - Mostly clear 10 - - - -
21/01:00pm 16.2 W 8 9 1027.6 - 0.0 - Mostly clear 10 - - - -
21/12:30pm 16.2 WNW 6 9 1027.9 - 0.0 - Mostly clear 10 - - - -
21/12:00pm 18.1 N 5 6 1028.1 F 0.0 Fine Mostly clear 30 - - - -
21/11:30am 17.0 N 5 6 1028.8 - 0.0 - Mostly clear 10 - - - -
21/11:00am 15.6 N 4 5 1029.3 - 0.0 - Mostly clear 10 - - - -
21/10:30am 15.0 N 4 5 1029.3 - 0.0 - Mostly clear 10 - - - -
21/10:00am 13.2 NNW 4 4 1029.3 - 0.0 - - 10 - - - -
21/09:30am 12.1 CALM 0 0 1029.3 - 0.0 - - 10 - - - -
21/09:00am 10.2 CALM 0 0 1029.1 R 0.0 Haze Mostly clear 25 - - - -
21/08:30am 7.9 CALM 0 0 1029.1 - 0.0 - - 10 - - - -
21/08:00am 6.3 E 2 3 1028.8 - 0.0 - - 10 - - - -
21/07:30am 5.0 E 3 4 1028.5 - 0.0 - - 10 - - - -
21/07:00am 4.7 CALM 0 3 1028.3 - 0.0 - - 10 - - - -
21/06:30am 5.1 E 4 4 1028.2 - 0.0 - Partly cloudy 10 - - - -
21/06:00am 4.5 ENE 4 6 1028.1 R 0.0 Fine Mostly clear 30 - - - -
21/05:30am 4.4 NE 5 5 1027.8 - 0.0 - - 10 - - - -
21/05:00am 4.2 NE 5 6 1027.5 - 0.0 - - 10 - - - -
21/04:30am 4.6 NNE 5 6 1027.4 - 0.0 - - 10 - - - -
21/04:00am 4.8 CALM 0 0 1027.4 - 0.0 - - 10 - - - -
21/03:30am 4.4 CALM 0 0 1027.5 - 0.0 - - 10 - - - -
21/03:00am 4.9 CALM 0 0 1027.2 R 0.0 Fine Clear 30 - - - -

Other Formats:

Comma delimited format used in spreadsheet applications
http://www.bom.gov.au/fwo/IDS60701/IDS60701.94672.axf

JavaScript Object Notation format (JSON) in row-major order
http://www.bom.gov.au/fwo/IDS60701/IDS60701.94672.json